Time;durP1;ratioP1;P1;durP2;ratioP2;P2;SDS_P1;SDS_P2;PMS_P1;PMS_P2;Temp;Humidity;BMP_temperature;BMP_pressure;BME280_temperature;BME280_humidity;BME280_pressure;Samples;Min_cycle;Max_cycle;Signal;HPM_P1;HPM_P2
2023/08/25 00:00:58;;;;;;;8.43;7.63;;;;;;;23.42;67.71;96803.47;4896828;28;20199;-84
2023/08/25 00:03:24;;;;;;;8.25;7.55;;;;;;;23.48;68.26;96818.84;4916435;28;20114;-86
2023/08/25 00:05:53;;;;;;;8.27;7.63;;;;;;;23.50;67.83;96815.84;4913320;28;20197;-85
2023/08/25 00:08:19;;;;;;;8.13;7.28;;;;;;;23.37;67.69;96802.59;4886338;28;20203;-83
2023/08/25 00:10:47;;;;;;;8.13;7.30;;;;;;;23.47;67.93;96811.97;4902825;28;20157;-84
2023/08/25 00:13:14;;;;;;;8.15;7.38;;;;;;;23.48;67.94;96800.22;4897847;28;20246;-84
2023/08/25 00:15:44;;;;;;;8.50;7.72;;;;;;;23.36;68.50;96793.06;4900693;28;20160;-83
2023/08/25 00:18:09;;;;;;;9.27;8.48;;;;;;;23.33;68.27;96777.81;4876149;28;20234;-84
2023/08/25 00:20:36;;;;;;;8.70;7.72;;;;;;;23.54;68.19;96796.25;4909744;28;20341;-84
2023/08/25 00:23:02;;;;;;;8.75;8.00;;;;;;;23.57;68.27;96792.13;4887386;28;20339;-85
2023/08/25 00:25:28;;;;;;;8.68;7.93;;;;;;;23.55;68.28;96789.03;4874036;28;20335;-85
2023/08/25 00:27:53;;;;;;;7.80;7.20;;;;;;;23.51;68.33;96788.13;4870254;28;20185;-85
2023/08/25 00:30:19;;;;;;;10.32;7.78;;;;;;;23.59;67.73;96797.09;4910963;28;20223;-84
2023/08/25 00:32:44;;;;;;;8.63;7.70;;;;;;;23.55;67.98;96791.69;4885820;28;20264;-86
2023/08/25 00:35:09;;;;;;;8.00;7.40;;;;;;;23.48;68.11;96786.94;4888012;28;20097;-84
2023/08/25 00:37:35;;;;;;;8.35;7.55;;;;;;;23.49;67.94;96785.06;4896837;28;21744;-85
2023/08/25 00:40:00;;;;;;;8.13;7.28;;;;;;;23.53;67.65;96784.06;4891365;28;20280;-86
2023/08/25 00:42:26;;;;;;;8.45;7.65;;;;;;;23.63;67.52;96803.28;4871570;28;20369;-86
2023/08/25 00:44:51;;;;;;;8.00;7.30;;;;;;;23.53;67.86;96784.06;4889726;28;20216;-85
2023/08/25 00:47:18;;;;;;;8.73;7.93;;;;;;;23.49;67.93;96775.22;4896607;28;20310;-85
2023/08/25 00:49:45;;;;;;;8.18;7.47;;;;;;;23.57;67.22;96792.13;4901032;28;20201;-85
2023/08/25 00:52:11;;;;;;;8.15;7.35;;;;;;;23.58;67.18;96785.69;4865532;28;20260;-84
2023/08/25 00:54:37;;;;;;;7.80;7.10;;;;;;;23.50;67.79;96774.09;4889953;28;20202;-85
2023/08/25 00:57:03;;;;;;;7.90;7.15;;;;;;;23.59;67.91;96787.22;4895630;28;20202;-85
2023/08/25 00:59:30;;;;;;;7.80;7.20;;;;;;;23.53;67.75;96784.06;4875795;28;20249;-85
2023/08/25 01:01:56;;;;;;;8.07;7.38;;;;;;;23.44;67.63;96778.13;4914646;28;20107;-85
2023/08/25 01:04:21;;;;;;;7.53;6.95;;;;;;;23.51;67.54;96790.78;4898990;23;20164;-85
2023/08/25 01:06:48;;;;;;;7.78;7.07;;;;;;;23.50;67.65;96789.28;4858971;28;20320;-85
2023/08/25 01:09:13;;;;;;;7.60;6.95;;;;;;;23.48;67.73;96789.59;4888007;28;20235;-85
2023/08/25 01:11:51;;;;;;;9.45;7.07;;;;;;;23.50;66.99;96784.72;4875302;28;20245;-85
2023/08/25 01:14:58;;;;;;;7.75;7.03;;;;;;;23.55;67.40;96786.38;4873235;28;20248;-85
2023/08/25 01:17:30;;;;;;;6.93;6.32;;;;;;;23.53;67.25;96793.91;4857191;28;20207;-85
2023/08/25 01:20:08;;;;;;;7.03;6.32;;;;;;;23.42;66.76;96806.13;4886626;28;20547;-84
2023/08/25 01:23:12;;;;;;;7.47;6.78;;;;;;;23.47;67.52;96801.34;4883770;28;20682;-84
2023/08/25 01:25:37;;;;;;;7.32;6.70;;;;;;;23.38;67.80;96795.41;4899519;28;20244;-85
2023/08/25 01:28:04;;;;;;;7.55;6.78;;;;;;;23.38;67.57;96798.81;4859703;28;20149;-85
2023/08/25 01:30:31;;;;;;;6.70;6.20;;;;;;;23.37;67.68;96797.28;4860586;28;20629;-85
2023/08/25 01:32:57;;;;;;;7.43;6.68;;;;;;;23.33;67.66;96795.63;4870707;28;20185;-85
2023/08/25 01:35:38;;;;;;;7.75;6.93;;;;;;;23.40;67.15;96792.41;4872238;28;20637;-84
2023/08/25 01:38:24;;;;;;;7.43;6.80;;;;;;;23.25;67.34;96768.06;4881100;28;20317;-85
2023/08/25 01:40:59;;;;;;;7.25;6.55;;;;;;;23.28;68.01;96787.91;4862989;28;20227;-85
2023/08/25 01:43:24;;;;;;;;;;;;;;;23.46;66.48;96780.41;4858774;28;20217;-84
2023/08/25 01:45:50;;;;;;;6.90;6.30;;;;;;;23.29;67.29;96786.81;4857662;28;20194;-85
2023/08/25 01:48:16;;;;;;;6.78;6.18;;;;;;;23.26;67.65;96782.16;4847209;28;20195;-85
2023/08/25 01:50:42;;;;;;;7.43;6.82;;;;;;;23.14;67.58;96764.38;4878988;28;20236;-85
2023/08/25 01:53:08;;;;;;;7.57;6.95;;;;;;;23.23;67.32;96791.56;4852335;28;20195;-85
2023/08/25 01:55:34;;;;;;;7.38;6.47;;;;;;;23.17;67.65;96783.06;4867733;28;20199;-85
2023/08/25 01:58:00;;;;;;;6.95;6.30;;;;;;;23.20;67.25;96792.22;4858299;28;20194;-85
2023/08/25 02:00:25;;;;;;;7.03;6.53;;;;;;;23.21;67.70;96785.81;4846514;28;20221;-85
2023/08/25 02:02:50;;;;;;;7.00;6.40;;;;;;;23.19;67.27;96774.75;4846947;28;20061;-85
2023/08/25 02:05:16;;;;;;;7.05;6.35;;;;;;;23.18;67.21;96773.19;4874077;28;20212;-85
2023/08/25 02:07:41;;;;;;;6.68;6.18;;;;;;;23.14;67.71;96767.03;4882271;28;20302;-85
2023/08/25 02:10:07;;;;;;;6.55;5.95;;;;;;;23.18;67.11;96768.69;4883459;28;20207;-85
2023/08/25 02:12:33;;;;;;;7.25;6.55;;;;;;;23.10;67.54;96768.78;4856044;28;20221;-85
2023/08/25 02:14:59;;;;;;;6.18;5.78;;;;;;;23.09;67.26;96760.06;4867045;28;20290;-85
2023/08/25 02:17:24;;;;;;;6.80;6.20;;;;;;;23.05;67.50;96745.09;4857616;28;20288;-86
2023/08/25 02:19:50;;;;;;;7.25;5.93;;;;;;;23.06;67.21;96749.34;4885332;28;20196;-86
2023/08/25 02:22:15;;;;;;;6.63;6.13;;;;;;;23.03;67.83;96740.16;4862268;28;20677;-86
2023/08/25 02:24:40;;;;;;;6.10;5.70;;;;;;;23.02;67.47;96741.25;4882157;28;20207;-86
2023/08/25 02:27:06;;;;;;;6.75;6.25;;;;;;;22.98;67.09;96738.50;4855373;28;20282;-86
2023/08/25 02:29:31;;;;;;;6.53;5.97;;;;;;;22.85;67.19;96729.00;4874627;28;20241;-86
2023/08/25 02:31:56;;;;;;;6.75;5.90;;;;;;;22.94;67.07;96750.09;4855396;28;20264;-86
2023/08/25 02:34:22;;;;;;;6.35;5.85;;;;;;;22.86;67.17;96741.16;4856142;28;20514;-86
2023/08/25 02:36:48;;;;;;;6.50;5.90;;;;;;;22.90;67.28;96752.66;4864005;28;20195;-86
2023/08/25 02:39:13;;;;;;;6.90;6.30;;;;;;;22.88;67.44;96746.91;4858341;28;20177;-86
2023/08/25 02:41:38;;;;;;;5.97;5.47;;;;;;;22.73;67.28;96729.78;4872275;28;20208;-86
2023/08/25 02:44:04;;;;;;;6.00;5.50;;;;;;;22.82;67.32;96734.97;4879095;28;20292;-86
2023/08/25 02:46:29;;;;;;;5.68;5.28;;;;;;;22.71;67.39;96715.31;4869232;28;20605;-86
2023/08/25 02:48:56;;;;;;;6.20;5.70;;;;;;;22.80;67.35;96715.97;4879639;28;20207;-86
2023/08/25 02:51:21;;;;;;;6.45;5.80;;;;;;;22.76;67.24;96720.41;4849354;28;20267;-87
2023/08/25 02:53:46;;;;;;;5.50;5.05;;;;;;;22.70;67.23;96700.50;4871236;28;20353;-86
2023/08/25 02:56:12;;;;;;;5.32;4.93;;;;;;;22.69;67.13;96701.59;4858272;28;20241;-86
2023/08/25 02:58:37;;;;;;;5.20;4.80;;;;;;;22.72;67.23;96703.59;4874781;28;20207;-86
2023/08/25 03:01:10;;;;;;;7.10;6.47;;;;;;;22.72;67.41;96709.69;4872327;28;20304;-86
2023/08/25 03:03:36;;;;;;;6.53;6.03;;;;;;;22.64;67.68;96699.97;4854142;28;20528;-86
2023/08/25 03:06:01;;;;;;;6.47;5.88;;;;;;;22.66;67.89;96694.31;4858615;28;20210;-86
2023/08/25 03:08:27;;;;;;;6.80;6.03;;;;;;;22.80;67.79;96715.97;4868560;28;20653;-86
2023/08/25 03:10:53;;;;;;;6.78;6.20;;;;;;;22.83;67.75;96714.53;4873850;28;20299;-86
2023/08/25 03:13:19;;;;;;;6.07;5.50;;;;;;;22.79;67.85;96706.44;4856212;28;20287;-86
2023/08/25 03:15:48;;;;;;;6.88;6.22;;;;;;;22.84;67.50;96710.75;4883617;28;20327;-86
2023/08/25 03:18:14;;;;;;;7.03;6.32;;;;;;;22.79;67.88;96707.22;4849703;28;20290;-86
2023/08/25 03:20:39;;;;;;;6.82;6.22;;;;;;;22.76;68.01;96693.84;4857582;28;20112;-86
2023/08/25 03:23:05;;;;;;;6.63;6.05;;;;;;;22.66;67.97;96678.41;4875286;28;20157;-87
2023/08/25 03:25:30;;;;;;;6.38;5.88;;;;;;;22.79;67.51;96691.31;4856261;28;20237;-87
2023/08/25 03:27:55;;;;;;;6.53;6.03;;;;;;;22.66;67.68;96667.78;4872158;28;20168;-87
2023/08/25 03:30:21;;;;;;;6.60;6.00;;;;;;;22.82;67.57;96681.88;4873079;28;20294;-87
2023/08/25 03:32:46;;;;;;;6.55;6.03;;;;;;;22.78;67.76;96670.41;4890616;28;20190;-87
2023/08/25 03:35:12;;;;;;;6.78;6.18;;;;;;;22.77;67.82;96652.91;4868200;28;20191;-87
2023/08/25 03:37:37;;;;;;;6.28;5.72;;;;;;;22.78;67.82;96649.16;4854780;28;20188;-87
2023/08/25 03:40:03;;;;;;;6.28;5.70;;;;;;;22.69;68.04;96625.41;4856056;28;20236;-87
2023/08/25 03:42:29;;;;;;;6.68;6.07;;;;;;;22.70;68.29;96634.91;4886008;28;20205;-87
2023/08/25 03:44:54;;;;;;;6.20;5.70;;;;;;;22.90;68.08;96675.66;4869626;28;20646;-87
2023/08/25 03:47:19;;;;;;;8.20;6.35;;;;;;;22.88;67.47;96716.94;4856730;28;20282;-88
2023/08/25 03:49:45;;;;;;;6.65;6.05;;;;;;;22.97;67.84;96799.88;4875250;28;20188;-88
2023/08/25 03:52:10;;;;;;;7.35;6.65;;;;;;;22.94;67.33;96801.31;4879208;28;20187;-87
2023/08/25 03:54:36;;;;;;;11.52;6.68;;;;;;;22.90;67.92;96795.13;4884215;28;20198;-87
2023/08/25 03:57:03;;;;;;;8.85;6.85;;;;;;;22.88;67.91;96801.91;4884142;28;20202;-91
2023/08/25 03:59:30;;;;;;;14.18;8.32;;;;;;;23.02;67.80;96684.72;4869433;28;20191;-88
2023/08/25 04:01:56;;;;;;;10.18;7.45;;;;;;;22.86;68.96;96608.44;4874310;28;20187;-85
2023/08/25 04:04:21;;;;;;;11.07;7.40;;;;;;;22.70;69.88;96541.25;4894673;28;20185;-88
2023/08/25 04:06:46;;;;;;;8.27;6.93;;;;;;;22.84;69.48;96562.09;4865113;28;20652;-86
2023/08/25 04:09:13;;;;;;;7.00;6.07;;;;;;;22.73;69.70;96540.59;4875423;28;20336;-85
2023/08/25 04:11:38;;;;;;;8.48;6.50;;;;;;;22.66;70.09;96559.75;4861355;28;20211;-87
2023/08/25 04:14:04;;;;;;;7.78;6.45;;;;;;;22.54;70.23;96559.81;4863476;28;20156;-87
2023/08/25 04:16:29;;;;;;;6.57;5.97;;;;;;;22.62;70.13;96583.53;4903606;28;20161;-88
2023/08/25 04:18:54;;;;;;;6.93;6.32;;;;;;;22.76;69.98;96603.63;4873415;28;20409;-86
2023/08/25 04:21:20;;;;;;;6.85;6.15;;;;;;;22.94;69.13;96601.44;4873657;28;20182;-85
2023/08/25 04:23:46;;;;;;;8.57;7.80;;;;;;;22.63;69.61;96553.22;4883417;28;20706;-88
2023/08/25 04:26:12;;;;;;;8.00;6.35;;;;;;;22.85;69.72;96579.59;4851124;28;20215;-86
2023/08/25 04:36:13;;;;;;;8.93;7.35;;;;;;;23.10;68.86;96681.94;5034372;23;20279;-86
2023/08/25 04:38:38;;;;;;;6.63;5.88;;;;;;;23.09;68.54;96727.44;4853677;28;20273;-88
2023/08/25 04:41:03;;;;;;;6.72;6.13;;;;;;;23.03;68.77;96745.44;4854768;28;20636;-86
2023/08/25 04:43:29;;;;;;;7.03;6.35;;;;;;;22.95;69.02;96723.22;4858068;28;20176;-86
2023/08/25 04:45:54;;;;;;;8.00;7.03;;;;;;;22.81;69.02;96696.28;4889656;28;20342;-85
2023/08/25 04:48:19;;;;;;;9.32;6.90;;;;;;;22.84;68.91;96711.50;4858476;28;20676;-86
2023/08/25 04:50:45;;;;;;;7.18;6.47;;;;;;;23.12;68.73;96822.38;4859797;28;20375;-86
2023/08/25 04:53:10;;;;;;;7.32;5.85;;;;;;;23.14;69.13;96852.00;4872733;28;20365;-84
2023/08/25 04:55:36;;;;;;;9.43;6.72;;;;;;;22.97;69.27;96848.44;4862303;28;20172;-88
2023/08/25 04:58:01;;;;;;;7.47;6.65;;;;;;;22.98;69.30;96844.69;4865275;28;20099;-86
2023/08/25 05:00:29;;;;;;;7.85;6.85;;;;;;;22.71;70.29;96851.44;4867382;28;20191;-88
2023/08/25 05:02:54;;;;;;;8.88;6.57;;;;;;;22.77;70.44;96859.94;4871316;28;20281;-88
2023/08/25 05:05:19;;;;;;;8.02;7.22;;;;;;;22.71;70.61;96850.69;4849294;28;20287;-87
2023/08/25 05:07:45;;;;;;;8.57;7.78;;;;;;;22.81;70.25;96840.38;4846514;28;20395;-86
2023/08/25 05:10:11;;;;;;;7.63;6.80;;;;;;;22.90;70.18;96842.91;4847137;28;20199;-88
2023/08/25 05:12:38;;;;;;;7.07;6.38;;;;;;;22.94;70.29;96833.16;4884431;28;20216;-87
2023/08/25 05:15:04;;;;;;;8.45;6.70;;;;;;;22.92;69.85;96822.13;4847072;28;20249;-87
2023/08/25 05:17:29;;;;;;;7.38;6.60;;;;;;;22.92;70.06;96813.38;4874837;28;20303;-88
2023/08/25 05:19:55;;;;;;;8.60;6.75;;;;;;;22.94;69.98;96819.91;4876602;28;20785;-87
2023/08/25 05:22:20;;;;;;;8.50;6.68;;;;;;;22.91;70.07;96793.25;4856779;28;20279;-87
2023/08/25 05:24:46;;;;;;;8.55;6.80;;;;;;;22.90;70.36;96784.50;4858654;28;20400;-86
2023/08/25 05:27:11;;;;;;;9.57;7.25;;;;;;;22.96;70.15;96772.56;4840709;28;20200;-86
2023/08/25 05:29:36;;;;;;;7.45;6.60;;;;;;;22.97;69.95;96736.16;4872257;28;20212;-85
2023/08/25 05:32:02;;;;;;;8.15;6.43;;;;;;;22.99;70.23;96702.84;4845418;28;20409;-87
2023/08/25 05:34:28;;;;;;;7.53;6.63;;;;;;;22.99;69.64;96686.16;4857845;29;20276;-87
2023/08/25 05:36:54;;;;;;;7.25;6.53;;;;;;;22.91;69.96;96677.22;4861685;28;20243;-87
2023/08/25 05:39:20;;;;;;;8.20;6.60;;;;;;;22.79;70.71;96670.06;4848483;29;20378;-86
2023/08/25 05:41:46;;;;;;;8.20;6.18;;;;;;;22.87;70.48;96657.00;4852332;29;20327;-86
2023/08/25 05:44:11;;;;;;;8.82;7.35;;;;;;;22.81;70.38;96632.56;4865638;28;20387;-87
2023/08/25 05:46:39;;;;;;;7.38;6.70;;;;;;;22.97;70.15;96636.03;4848708;29;20293;-87
2023/08/25 05:49:04;;;;;;;6.40;5.80;;;;;;;23.09;69.92;96651.19;4850071;28;20298;-87
2023/08/25 05:51:30;;;;;;;6.40;5.80;;;;;;;23.12;69.65;96666.44;4844174;29;20245;-87
2023/08/25 05:53:55;;;;;;;6.38;5.80;;;;;;;23.12;69.36;96668.34;4859574;28;20195;-87
2023/08/25 05:56:21;;;;;;;8.35;7.22;;;;;;;23.14;69.21;96682.81;4860915;28;20320;-88
2023/08/25 05:58:46;;;;;;;7.15;6.55;;;;;;;23.13;69.34;96696.41;4839756;29;20276;-88
2023/08/25 06:01:11;;;;;;;6.88;6.25;;;;;;;23.05;69.98;96702.59;4857579;28;20204;-87
2023/08/25 06:03:37;;;;;;;7.43;6.40;;;;;;;22.97;69.75;96694.44;4846394;29;20691;-87
2023/08/25 06:06:03;;;;;;;6.60;6.00;;;;;;;23.11;69.91;96715.34;4867437;28;20167;-87
2023/08/25 06:08:29;;;;;;;7.35;6.25;;;;;;;23.12;69.78;96705.50;4852911;29;20660;-87
2023/08/25 06:10:55;;;;;;;7.20;6.35;;;;;;;23.04;69.88;96712.47;4848618;29;20174;-87
2023/08/25 06:13:20;;;;;;;7.57;6.88;;;;;;;23.10;70.06;96707.72;4873045;28;20121;-88
2023/08/25 06:15:47;;;;;;;6.18;5.68;;;;;;;23.00;69.88;96701.75;4838019;29;20698;-87
2023/08/25 06:18:12;;;;;;;6.65;6.05;;;;;;;22.99;69.82;96707.38;4833889;29;20623;-88
2023/08/25 06:20:41;;;;;;;7.32;6.63;;;;;;;23.12;69.75;96726.75;4851034;28;20204;-88
2023/08/25 06:23:06;;;;;;;7.10;6.40;;;;;;;23.06;69.69;96712.16;4857592;28;20168;-87
2023/08/25 06:25:32;;;;;;;6.32;5.72;;;;;;;23.10;69.87;96718.31;4873104;28;20176;-87
2023/08/25 06:27:57;;;;;;;5.80;5.20;;;;;;;22.96;69.71;96697.44;4864237;29;20363;-88
2023/08/25 06:30:26;;;;;;;5.05;4.65;;;;;;;23.02;69.84;96692.69;4842746;28;21180;-87
2023/08/25 06:32:52;;;;;;;6.15;5.53;;;;;;;23.14;70.40;96705.94;4842487;28;20384;-87
2023/08/25 06:35:18;;;;;;;6.43;5.50;;;;;;;23.04;70.28;96679.84;4856172;28;20503;-88
2023/08/25 06:37:43;;;;;;;5.63;5.20;;;;;;;23.05;70.36;96666.22;4850342;29;20193;-88
2023/08/25 06:40:08;;;;;;;5.57;5.03;;;;;;;23.22;70.08;96675.81;4867199;28;20794;-88
2023/08/25 06:42:34;;;;;;;7.15;5.53;;;;;;;23.19;70.16;96669.28;4858013;28;20220;-88
2023/08/25 06:45:00;;;;;;;4.85;4.45;;;;;;;23.20;70.07;96670.03;4842204;28;20212;-87
2023/08/25 06:47:27;;;;;;;5.00;4.15;;;;;;;23.33;69.01;96700.75;4852447;28;20615;-88
2023/08/25 06:49:53;;;;;;;6.07;3.95;;;;;;;23.27;69.08;96702.13;4838928;28;20185;-88
2023/08/25 06:52:19;;;;;;;4.43;4.03;;;;;;;23.22;69.02;96696.28;4840294;28;20652;-87
2023/08/25 06:54:44;;;;;;;3.80;3.50;;;;;;;23.19;69.33;96695.06;4839878;28;20283;-85
2023/08/25 06:57:10;;;;;;;4.45;4.00;;;;;;;23.15;68.87;96691.53;4876602;28;20109;-87
2023/08/25 06:59:35;;;;;;;4.38;4.03;;;;;;;23.03;69.42;96680.94;4852816;28;20203;-88
2023/08/25 07:02:00;;;;;;;3.70;3.30;;;;;;;23.10;69.36;96691.78;4866529;28;20208;-88
2023/08/25 07:04:26;;;;;;;5.13;3.40;;;;;;;23.25;68.98;96707.00;4865990;28;20279;-88
2023/08/25 07:06:51;;;;;;;3.78;3.47;;;;;;;23.15;69.05;96712.78;4842802;28;20213;-87
2023/08/25 07:09:17;;;;;;;5.28;3.95;;;;;;;23.24;68.87;96728.59;4876150;28;20204;-88
2023/08/25 07:11:43;;;;;;;3.65;3.35;;;;;;;23.29;69.18;96726.47;4848377;28;20196;-88
2023/08/25 07:14:09;;;;;;;3.83;3.35;;;;;;;23.14;69.45;96712.00;4844640;28;20285;-86
2023/08/25 07:16:34;;;;;;;6.07;4.82;;;;;;;23.35;69.53;96733.06;4841943;28;20507;-87
2023/08/25 07:19:00;;;;;;;4.30;3.50;;;;;;;23.22;69.63;96723.63;4855047;28;20254;-86
2023/08/25 07:21:25;;;;;;;4.50;3.70;;;;;;;23.39;68.95;96751.78;4874342;28;20494;-86
2023/08/25 07:23:50;;;;;;;4.10;3.65;;;;;;;23.48;69.66;96768.34;4840791;28;20211;-86
2023/08/25 07:26:16;;;;;;;6.80;4.22;;;;;;;23.47;69.75;96761.47;4840545;28;20298;-88
2023/08/25 07:28:41;;;;;;;4.70;4.10;;;;;;;23.53;69.25;96768.09;4853955;29;20208;-87
2023/08/25 07:31:07;;;;;;;4.55;4.00;;;;;;;23.52;69.08;96755.91;4872943;28;20294;-86
2023/08/25 07:33:32;;;;;;;5.55;4.00;;;;;;;23.56;69.71;96761.31;4876543;28;20212;-87
2023/08/25 07:35:58;;;;;;;4.25;3.92;;;;;;;23.63;69.34;96756.22;4827758;29;20362;-85
2023/08/25 07:38:23;;;;;;;5.10;4.18;;;;;;;23.63;68.68;96747.44;4855758;28;20224;-86
2023/08/25 07:40:49;;;;;;;5.03;3.90;;;;;;;23.56;69.08;96751.47;4860795;28;20219;-88
2023/08/25 07:43:14;;;;;;;4.53;4.13;;;;;;;23.37;69.69;96744.16;4874297;28;20247;-87
2023/08/25 07:45:40;;;;;;;5.43;4.65;;;;;;;23.38;69.74;96732.41;4854755;29;20083;-88
2023/08/25 07:48:05;;;;;;;5.18;4.13;;;;;;;23.31;69.40;96718.94;4845469;29;20200;-86
2023/08/25 07:50:31;;;;;;;4.43;4.03;;;;;;;23.43;69.26;96726.06;4871486;28;20272;-86
2023/08/25 07:52:58;;;;;;;4.40;4.00;;;;;;;23.55;69.37;96727.91;4870411;28;20243;-87
2023/08/25 07:55:24;;;;;;;6.07;4.25;;;;;;;23.47;68.83;96715.53;4859416;28;20274;-88
2023/08/25 07:57:50;;;;;;;4.22;3.92;;;;;;;23.71;67.88;96736.66;4860459;28;20283;-86
2023/08/25 08:00:17;;;;;;;5.60;3.70;;;;;;;23.85;68.00;96727.53;4868445;28;20293;-86
2023/08/25 08:02:45;;;;;;;5.20;4.40;;;;;;;23.86;69.13;96729.84;4858899;28;20274;-86
2023/08/25 08:05:10;;;;;;;4.20;3.80;;;;;;;23.97;67.91;96738.09;4844811;28;20739;-86
2023/08/25 08:07:36;;;;;;;4.10;3.60;;;;;;;23.83;68.81;96745.72;4847525;28;20176;-87
2023/08/25 08:10:03;;;;;;;4.38;3.55;;;;;;;24.12;66.85;96718.72;4858638;28;20240;-89
2023/08/25 08:12:29;;;;;;;5.03;3.40;;;;;;;24.55;67.49;96720.84;4843190;28;20544;-89
2023/08/25 08:14:55;;;;;;;4.03;3.30;;;;;;;24.93;67.50;96743.31;4834712;28;20203;-92
2023/08/25 08:17:20;;;;;;;4.45;3.47;;;;;;;25.34;66.50;96725.91;4849412;28;20425;-86
2023/08/25 08:19:48;;;;;;;2.92;2.72;;;;;;;25.58;65.10;96727.50;4861513;29;20698;-90
2023/08/25 08:22:13;;;;;;;3.45;2.67;;;;;;;25.39;63.80;96722.19;4851131;28;20306;-88
2023/08/25 08:24:41;;;;;;;2.50;2.30;;;;;;;25.35;63.38;96748.00;4850418;29;20495;-91
2023/08/25 08:27:07;;;;;;;2.97;2.65;;;;;;;25.55;63.59;96764.75;4856391;29;20192;-92
2023/08/25 08:29:36;;;;;;;2.60;2.40;;;;;;;25.51;62.70;96772.69;4857345;28;20224;-91
2023/08/25 08:32:04;;;;;;;4.03;2.70;;;;;;;25.71;62.22;96735.34;4877633;28;20614;-92
2023/08/25 08:34:29;;;;;;;3.70;2.60;;;;;;;25.64;63.71;96754.66;4869213;29;20290;-87
2023/08/25 08:36:54;;;;;;;2.88;2.67;;;;;;;25.36;61.86;96760.19;4872768;28;20813;-89
2023/08/25 08:39:21;;;;;;;4.40;2.60;;;;;;;25.67;62.67;96739.81;4896992;28;20204;-93
2023/08/25 08:41:48;;;;;;;2.97;2.75;;;;;;;26.04;62.33;96745.44;4900049;28;20271;-90
2023/08/25 08:44:15;;;;;;;2.55;2.35;;;;;;;25.74;61.69;96742.66;4860768;28;20113;-89
2023/08/25 08:46:43;;;;;;;2.92;2.50;;;;;;;25.95;62.08;96737.69;4879327;29;20071;-89
2023/08/25 08:49:11;;;;;;;2.90;2.63;;;;;;;26.07;62.20;96722.63;4876081;28;20189;-89
2023/08/25 08:51:38;;;;;;;3.42;2.63;;;;;;;26.16;61.41;96728.50;5015023;23;20227;-90
2023/08/25 08:54:05;;;;;;;2.83;2.45;;;;;;;26.07;60.83;96717.31;4906033;28;20239;-90
2023/08/25 08:56:31;;;;;;;3.13;2.60;;;;;;;26.03;60.78;96719.91;4907396;28;20183;-88
2023/08/25 09:09:30;;;;;;;2.95;2.28;;;;;;;26.04;60.90;96718.00;4960710;28;20207;-90
2023/08/25 09:11:55;;;;;;;3.97;2.60;;;;;;;25.89;60.64;96727.63;4895625;28;20211;-92
2023/08/25 09:16:57;;;;;;;2.90;2.70;;;;;;;25.63;60.19;96693.69;4895075;28;20335;-89
2023/08/25 09:19:23;;;;;;;3.13;2.80;;;;;;;25.63;61.33;96717.66;4847706;28;20162;-90
2023/08/25 09:21:50;;;;;;;3.35;2.95;;;;;;;25.14;61.27;96679.84;4837014;29;20222;-90
2023/08/25 09:24:21;;;;;;;2.97;2.70;;;;;;;25.18;61.91;96701.22;4826903;29;20218;-91
2023/08/25 09:26:47;;;;;;;3.20;2.90;;;;;;;25.23;61.87;96699.03;4843770;29;20167;-90
2023/08/25 09:29:13;;;;;;;3.75;2.72;;;;;;;25.53;61.61;96738.47;4821463;28;20276;-89
2023/08/25 09:31:38;;;;;;;3.13;2.88;;;;;;;25.47;63.20;96742.53;4842828;29;20319;-88
2023/08/25 09:34:08;;;;;;;2.92;2.72;;;;;;;25.26;62.45;96702.94;4826626;28;20213;-88
2023/08/25 09:36:34;;;;;;;3.03;2.80;;;;;;;25.31;62.42;96707.97;4847113;29;20330;-89
2023/08/25 09:39:00;;;;;;;3.00;2.80;;;;;;;25.51;61.61;96740.69;4849899;29;20422;-91
2023/08/25 09:41:28;;;;;;;3.67;3.00;;;;;;;25.35;62.47;96716.78;4827785;29;20197;-89
2023/08/25 09:43:57;;;;;;;3.70;2.75;;;;;;;25.56;63.77;96727.06;4849308;29;20230;-88
2023/08/25 09:46:30;;;;;;;3.22;2.90;;;;;;;25.70;62.57;96705.22;4840509;28;20216;-90
2023/08/25 09:49:02;;;;;;;4.18;3.20;;;;;;;25.86;62.94;96710.47;4855592;29;20256;-88
2023/08/25 09:51:42;;;;;;;3.50;3.20;;;;;;;25.89;62.71;96699.09;4852836;29;20218;-88
2023/08/25 09:54:12;;;;;;;3.75;2.70;;;;;;;25.92;61.59;96708.25;4854201;29;20272;-88
2023/08/25 09:56:39;;;;;;;3.50;3.20;;;;;;;25.99;62.14;96697.72;4848858;29;20238;-89
2023/08/25 09:59:06;;;;;;;2.80;2.60;;;;;;;25.80;63.14;96696.63;4825275;28;20198;-89
2023/08/25 10:01:33;;;;;;;3.75;3.35;;;;;;;26.07;61.43;96707.38;4839119;29;20209;-89
2023/08/25 10:03:59;;;;;;;2.97;2.78;;;;;;;26.13;62.11;96732.66;4846978;28;20264;-89
2023/08/25 10:06:26;;;;;;;4.57;3.10;;;;;;;25.88;61.55;96708.22;4878116;28;20232;-87
2023/08/25 10:08:52;;;;;;;3.55;2.60;;;;;;;25.78;61.28;96701.56;4861262;28;20277;-87
2023/08/25 10:11:21;;;;;;;4.32;3.22;;;;;;;25.92;60.94;96710.94;4860622;28;20239;-89
2023/08/25 10:13:50;;;;;;;2.75;2.55;;;;;;;25.72;61.24;96703.00;4867036;29;20246;-89
2023/08/25 10:16:16;;;;;;;4.38;3.10;;;;;;;25.92;61.40;96735.69;4869786;28;20371;-86
2023/08/25 10:18:44;;;;;;;3.70;2.53;;;;;;;25.97;61.22;96734.66;4855492;29;20185;-91
2023/08/25 10:21:10;;;;;;;3.58;2.67;;;;;;;25.91;60.93;96728.03;4861359;29;20264;-89
2023/08/25 10:23:36;;;;;;;2.83;2.63;;;;;;;25.75;60.39;96717.50;4849831;28;20240;-89
2023/08/25 10:26:03;;;;;;;3.35;2.65;;;;;;;25.66;61.51;96704.41;4853131;28;20271;-89
2023/08/25 10:28:29;;;;;;;3.70;3.38;;;;;;;25.95;61.21;96737.69;4855813;28;20298;-89
2023/08/25 10:30:54;;;;;;;4.10;3.05;;;;;;;25.96;60.86;96733.91;4866626;28;20617;-88
2023/08/25 10:33:20;;;;;;;3.67;3.25;;;;;;;26.01;61.83;96745.41;4850065;29;20212;-89
2023/08/25 10:35:47;;;;;;;3.15;2.90;;;;;;;25.94;60.32;96733.50;4846882;28;20442;-89
2023/08/25 10:38:18;;;;;;;3.85;3.28;;;;;;;26.04;60.99;96734.00;4850809;28;20251;-89
2023/08/25 10:40:52;;;;;;;3.05;2.85;;;;;;;25.91;60.03;96718.16;4869568;28;20717;-88
2023/08/25 10:43:30;;;;;;;5.27;3.07;;;;;;;25.85;60.23;96732.16;4869808;28;20194;-88
2023/08/25 10:45:56;;;;;;;4.40;3.63;;;;;;;25.88;60.76;96704.78;4880333;28;20558;-89
2023/08/25 10:48:25;;;;;;;3.30;3.05;;;;;;;25.85;60.14;96708.91;4866855;28;20097;-88
2023/08/25 10:51:06;;;;;;;3.70;3.00;;;;;;;26.14;59.71;96722.75;4846856;29;20663;-88
2023/08/25 10:53:38;;;;;;;3.60;3.00;;;;;;;26.02;60.69;96726.38;4850962;29;20335;-90
2023/08/25 10:56:21;;;;;;;3.20;2.90;;;;;;;26.14;59.50;96728.09;4846077;28;20111;-88
2023/08/25 10:58:57;;;;;;;4.55;3.20;;;;;;;26.22;59.77;96716.41;4861953;28;20304;-87
2023/08/25 11:01:38;;;;;;;3.85;3.17;;;;;;;26.18;60.33;96715.56;4869935;28;20316;-88
2023/08/25 11:04:13;;;;;;;3.67;3.38;;;;;;;26.23;60.58;96719.81;4896052;28;20039;-88
2023/08/25 11:06:48;;;;;;;3.90;2.88;;;;;;;26.27;59.79;96724.09;4860375;28;20153;-87
2023/08/25 11:09:32;;;;;;;4.22;3.65;;;;;;;26.21;61.34;96727.44;4862299;29;20216;-88
2023/08/25 11:11:59;;;;;;;3.78;3.47;;;;;;;26.05;60.43;96719.56;4878879;28;20114;-89
2023/08/25 11:14:31;;;;;;;3.33;3.03;;;;;;;26.07;60.65;96706.63;4849057;28;20207;-89
2023/08/25 11:17:07;;;;;;;3.42;3.13;;;;;;;26.04;59.91;96712.66;4835987;29;20354;-87
2023/08/25 11:19:36;;;;;;;4.13;3.35;;;;;;;25.86;61.53;96705.13;4844139;28;20189;-88
2023/08/25 11:22:08;;;;;;;3.50;3.20;;;;;;;26.05;61.03;96709.66;4863916;28;20172;-88
2023/08/25 11:24:33;;;;;;;4.20;3.40;;;;;;;26.05;61.37;96714.22;4832795;29;20298;-89
2023/08/25 11:27:06;;;;;;;3.70;3.15;;;;;;;26.30;60.63;96712.72;4839614;28;20193;-86
2023/08/25 11:29:33;;;;;;;3.65;3.00;;;;;;;26.15;60.86;96686.94;4865645;28;20542;-87
2023/08/25 11:31:59;;;;;;;4.55;3.17;;;;;;;26.32;60.86;96712.31;4878548;28;20263;-87
2023/08/25 11:34:25;;;;;;;4.30;3.90;;;;;;;26.18;60.12;96707.53;4866933;28;20125;-87
2023/08/25 11:36:50;;;;;;;3.88;3.00;;;;;;;26.15;61.02;96711.72;4847129;28;20205;-88
2023/08/25 11:39:19;;;;;;;3.90;3.60;;;;;;;26.28;60.10;96733.63;4857629;28;20112;-86
2023/08/25 11:41:46;;;;;;;4.32;2.95;;;;;;;26.21;60.90;96722.09;4846393;29;20280;-87
2023/08/25 11:44:12;;;;;;;4.18;3.83;;;;;;;26.23;60.15;96704.56;4851957;28;20201;-87
2023/08/25 11:46:38;;;;;;;3.80;3.20;;;;;;;26.39;61.16;96730.34;4881526;28;20161;-87
2023/08/25 11:49:06;;;;;;;4.40;3.40;;;;;;;26.55;60.32;96741.66;4861200;28;20241;-89
2023/08/25 11:51:31;;;;;;;4.00;3.53;;;;;;;26.48;58.88;96715.63;4864602;28;20674;-87
2023/08/25 11:53:57;;;;;;;4.15;3.28;;;;;;;26.45;60.46;96703.00;4840509;29;20186;-87